RYR19SG LIRP-LKPR
Flight info
| Callsign | RYR19SG |
|---|---|
| Flight time | N/A |
| Altitude | 36000 |
| Route | BEROK DCT OSBUL DCT MALUG/N0439F370 DCT BUDEX/N0436F360 DCT APRAQ |
| Aircraft | B738/M-SDE2E3FGHIRWXY/LB1 |
Departure
| Time | 2026-04-29 19:54 |
|---|---|
| Airport | Pisa International Airport (LIRP) |
Arrival
| Time | N/A |
|---|---|
| Airport | Václav Havel Airport Prague (LKPR) |
| Time | Latitude | Longitude | Altitude | Speed | Heading |
|---|---|---|---|---|---|
| 2026-04-29 19:21 | 43.69747 | 10.40032 | 10 ft | 0 kts | 9° |
| 2026-04-29 19:43 | 43.69742 | 10.40031 | 10 ft | 4 kts | 11° |
| 2026-04-29 19:44 | 43.69717 | 10.40021 | 12 ft | 4 kts | 28° |
| 2026-04-29 19:44 | 43.69696 | 10.39999 | 10 ft | 4 kts | 57° |
| 2026-04-29 19:44 | 43.69689 | 10.39968 | 10 ft | 3 kts | 98° |
| 2026-04-29 19:44 | 43.69689 | 10.39965 | 10 ft | 1 kts | 99° |
| 2026-04-29 19:48 | 43.69686 | 10.39986 | 12 ft | 6 kts | 98° |
| 2026-04-29 19:48 | 43.69680 | 10.40031 | 10 ft | 7 kts | 115° |
| 2026-04-29 19:48 | 43.69619 | 10.40060 | 12 ft | 7 kts | 172° |
| 2026-04-29 19:48 | 43.69571 | 10.40071 | 11 ft | 7 kts | 169° |
| 2026-04-29 19:49 | 43.69518 | 10.40080 | 10 ft | 8 kts | 173° |
| 2026-04-29 19:49 | 43.69462 | 10.40090 | 10 ft | 8 kts | 173° |
| 2026-04-29 19:49 | 43.69406 | 10.40105 | 10 ft | 9 kts | 166° |
| 2026-04-29 19:49 | 43.69354 | 10.40158 | 10 ft | 10 kts | 127° |
| 2026-04-29 19:50 | 43.69330 | 10.40202 | 10 ft | 2 kts | 127° |
| 2026-04-29 19:50 | 43.69328 | 10.40207 | 10 ft | 0 kts | 127° |
| 2026-04-29 19:52 | 43.69317 | 10.40228 | 11 ft | 8 kts | 125° |
| 2026-04-29 19:52 | 43.69271 | 10.40320 | 7 ft | 4 kts | 126° |
| 2026-04-29 19:53 | 43.69264 | 10.40326 | 7 ft | 2 kts | 156° |
| 2026-04-29 19:53 | 43.69199 | 10.40272 | 7 ft | 36 kts | 218° |
| 2026-04-29 19:53 | 43.68807 | 10.39866 | 8 ft | 103 kts | 217° |
| 2026-04-29 19:53 | 43.68084 | 10.39116 | 14 ft | 154 kts | 219° |
| 2026-04-29 19:54 | 43.66259 | 10.37245 | 1058 ft | 172 kts | 217° |
| 2026-04-29 19:54 | 43.65260 | 10.36218 | 1521 ft | 187 kts | 216° |
| 2026-04-29 19:54 | 43.64182 | 10.35126 | 2002 ft | 199 kts | 216° |
| 2026-04-29 19:55 | 43.63177 | 10.33754 | 2554 ft | 209 kts | 240° |
| 2026-04-29 19:55 | 43.62879 | 10.31761 | 3002 ft | 223 kts | 279° |
| 2026-04-29 19:55 | 43.63560 | 10.29772 | 3437 ft | 237 kts | 309° |
| 2026-04-29 19:55 | 43.64609 | 10.28047 | 4306 ft | 231 kts | 310° |
| 2026-04-29 19:56 | 43.65640 | 10.26311 | 4842 ft | 243 kts | 309° |
| 2026-04-29 19:56 | 43.66779 | 10.24566 | 5547 ft | 239 kts | 325° |
| 2026-04-29 19:56 | 43.68285 | 10.23741 | 6360 ft | 236 kts | 355° |
| 2026-04-29 19:56 | 43.69903 | 10.24000 | 6930 ft | 240 kts | 20° |
| 2026-04-29 19:57 | 43.71388 | 10.25027 | 7650 ft | 238 kts | 33° |
| 2026-04-29 19:57 | 43.72308 | 10.25929 | 8097 ft | 242 kts | 37° |
| 2026-04-29 19:57 | 43.74078 | 10.27870 | 9024 ft | 246 kts | 39° |
| 2026-04-29 19:57 | 43.75446 | 10.29343 | 9629 ft | 255 kts | 30° |
| 2026-04-29 19:58 | 43.77163 | 10.30341 | 9917 ft | 278 kts | 18° |
| 2026-04-29 19:58 | 43.79043 | 10.31190 | 10291 ft | 296 kts | 16° |
| 2026-04-29 19:58 | 43.81095 | 10.32106 | 10435 ft | 322 kts | 17° |
| 2026-04-29 19:58 | 43.83263 | 10.33157 | 10846 ft | 336 kts | 19° |
| 2026-04-29 19:59 | 43.85482 | 10.34295 | 11556 ft | 341 kts | 19° |
| 2026-04-29 19:59 | 43.87710 | 10.35435 | 12379 ft | 342 kts | 15° |
| 2026-04-29 19:59 | 43.90059 | 10.35786 | 13208 ft | 340 kts | 353° |
| 2026-04-29 19:59 | 43.92381 | 10.35399 | 14082 ft | 341 kts | 351° |
| 2026-04-29 20:00 | 43.94748 | 10.34986 | 14834 ft | 345 kts | 351° |
| 2026-04-29 20:00 | 43.97146 | 10.34590 | 15632 ft | 348 kts | 352° |
| 2026-04-29 20:00 | 43.99577 | 10.34288 | 16405 ft | 353 kts | 356° |
| 2026-04-29 20:00 | 44.02051 | 10.34340 | 17161 ft | 358 kts | 0° |
| 2026-04-29 20:01 | 44.04557 | 10.34518 | 17931 ft | 362 kts | 1° |
| 2026-04-29 20:01 | 44.07094 | 10.34702 | 18644 ft | 366 kts | 1° |
| 2026-04-29 20:01 | 44.09622 | 10.34854 | 19271 ft | 369 kts | 360° |
| 2026-04-29 20:01 | 44.12205 | 10.34980 | 19914 ft | 372 kts | 359° |
| 2026-04-29 20:02 | 44.14805 | 10.35094 | 20558 ft | 375 kts | 359° |
| 2026-04-29 20:02 | 44.17427 | 10.35168 | 21193 ft | 377 kts | 356° |
| 2026-04-29 20:02 | 44.20068 | 10.35019 | 21799 ft | 380 kts | 353° |
| 2026-04-29 20:02 | 44.21830 | 10.34856 | 22196 ft | 383 kts | 353° |
| 2026-04-29 20:03 | 44.25366 | 10.34488 | 23007 ft | 387 kts | 352° |
| 2026-04-29 20:03 | 44.28067 | 10.34208 | 23610 ft | 391 kts | 352° |
| 2026-04-29 20:03 | 44.30795 | 10.33938 | 24128 ft | 394 kts | 352° |
| 2026-04-29 20:03 | 44.33551 | 10.33678 | 24642 ft | 397 kts | 353° |
| 2026-04-29 20:04 | 44.36312 | 10.33425 | 25154 ft | 399 kts | 353° |
| 2026-04-29 20:04 | 44.39096 | 10.33176 | 25674 ft | 401 kts | 353° |
| 2026-04-29 20:04 | 44.41887 | 10.32928 | 26153 ft | 403 kts | 353° |
| 2026-04-29 20:04 | 44.44701 | 10.32679 | 26609 ft | 407 kts | 352° |
| 2026-04-29 20:05 | 44.47554 | 10.32564 | 27001 ft | 415 kts | 0° |
| 2026-04-29 20:05 | 44.50414 | 10.33377 | 27335 ft | 427 kts | 15° |
| 2026-04-29 20:05 | 44.53110 | 10.35154 | 27511 ft | 442 kts | 28° |
| 2026-04-29 20:05 | 44.55690 | 10.37630 | 27601 ft | 455 kts | 31° |
| 2026-04-29 20:06 | 44.58298 | 10.40249 | 27670 ft | 465 kts | 32° |
| 2026-04-29 20:06 | 44.60949 | 10.42932 | 27782 ft | 473 kts | 32° |
| 2026-04-29 20:06 | 44.63628 | 10.45640 | 28219 ft | 473 kts | 32° |
| 2026-04-29 20:06 | 44.66291 | 10.48318 | 28959 ft | 466 kts | 31° |
| 2026-04-29 20:07 | 44.68895 | 10.50926 | 29781 ft | 459 kts | 31° |
| 2026-04-29 20:07 | 44.71504 | 10.53524 | 30150 ft | 462 kts | 30° |
| 2026-04-29 20:07 | 44.74157 | 10.56154 | 30398 ft | 466 kts | 30° |
| 2026-04-29 20:07 | 44.76806 | 10.58779 | 30742 ft | 466 kts | 30° |
| 2026-04-29 20:08 | 44.79450 | 10.61402 | 31203 ft | 463 kts | 30° |
| 2026-04-29 20:08 | 44.81192 | 10.63134 | 31532 ft | 461 kts | 30° |
| 2026-04-29 20:08 | 44.84685 | 10.66613 | 32160 ft | 458 kts | 30° |
| 2026-04-29 20:08 | 44.87250 | 10.69169 | 32570 ft | 457 kts | 30° |
| 2026-04-29 20:09 | 44.89844 | 10.71757 | 32966 ft | 457 kts | 29° |
| 2026-04-29 20:09 | 44.92443 | 10.74351 | 33304 ft | 458 kts | 29° |
| 2026-04-29 20:09 | 44.95044 | 10.76952 | 33663 ft | 457 kts | 29° |
| 2026-04-29 20:09 | 44.97638 | 10.79549 | 34087 ft | 455 kts | 29° |
| 2026-04-29 20:10 | 45.00222 | 10.82141 | 34445 ft | 453 kts | 29° |
| 2026-04-29 20:10 | 45.02793 | 10.84722 | 34774 ft | 452 kts | 29° |
| 2026-04-29 20:10 | 45.05354 | 10.87296 | 35073 ft | 451 kts | 30° |
| 2026-04-29 20:10 | 45.07880 | 10.89836 | 35361 ft | 452 kts | 29° |
| 2026-04-29 20:11 | 45.10448 | 10.92420 | 35571 ft | 453 kts | 30° |
| 2026-04-29 20:11 | 45.13019 | 10.95011 | 35865 ft | 453 kts | 30° |
| 2026-04-29 20:11 | 45.15585 | 10.97600 | 36119 ft | 453 kts | 30° |
| 2026-04-29 20:11 | 45.18173 | 11.00212 | 36094 ft | 457 kts | 30° |
| 2026-04-29 20:12 | 45.23341 | 11.05444 | 36091 ft | 453 kts | 30° |
| 2026-04-29 20:12 | 45.28415 | 11.10597 | 36114 ft | 451 kts | 30° |
| 2026-04-29 20:13 | 45.32663 | 11.14913 | 36127 ft | 452 kts | 30° |